createdAt,value
2022-10-23T00:01:26.703Z,8.08
2022-10-23T00:03:55.672Z,7.88
2022-10-23T00:06:22.822Z,7.87
2022-10-23T00:08:50.065Z,7.94
2022-10-23T00:11:20.884Z,7.97
2022-10-23T00:13:48.969Z,7.88
2022-10-23T00:16:15.790Z,7.96
2022-10-23T00:18:42.718Z,8.00
2022-10-23T00:21:11.877Z,7.95
2022-10-23T00:23:38.660Z,7.81
2022-10-23T00:26:05.505Z,7.70
2022-10-23T00:28:32.156Z,7.65
2022-10-23T00:31:03.191Z,7.67
2022-10-23T00:33:30.082Z,7.71
2022-10-23T00:35:56.757Z,7.64
2022-10-23T00:38:24.086Z,7.67
2022-10-23T00:40:51.584Z,7.43
2022-10-23T00:43:21.616Z,7.45
2022-10-23T00:45:48.377Z,7.46
2022-10-23T00:48:16.176Z,7.51
2022-10-23T00:50:42.967Z,7.58
2022-10-23T00:53:12.600Z,7.57
2022-10-23T00:55:41.375Z,7.62
2022-10-23T00:58:08.034Z,7.69
2022-10-23T01:00:45.726Z,7.45
2022-10-23T01:03:14.566Z,7.40
2022-10-23T01:05:54.189Z,7.47
2022-10-23T01:08:50.559Z,7.27
2022-10-23T01:11:26.843Z,7.38
2022-10-23T01:14:06.480Z,7.50
2022-10-23T01:16:46.301Z,7.43
2022-10-23T01:19:37.460Z,7.50
2022-10-23T01:22:13.596Z,7.47
2022-10-23T01:24:53.749Z,7.44
2022-10-23T01:27:25.210Z,7.41
2022-10-23T01:30:08.935Z,7.45
2022-10-23T01:32:40.390Z,7.37
2022-10-23T01:35:12.248Z,7.38
2022-10-23T01:37:54.438Z,7.34
2022-10-23T01:40:39.202Z,7.30
2022-10-23T01:43:12.665Z,7.34
2022-10-23T01:45:43.729Z,7.49
2022-10-23T01:48:15.783Z,7.53
2022-10-23T01:50:45.495Z,7.50
2022-10-23T01:53:12.265Z,7.46
2022-10-23T01:58:15.328Z,7.28
2022-10-23T02:00:45.643Z,7.48
2022-10-23T02:03:15.934Z,7.51
2022-10-23T02:05:43.516Z,7.45
2022-10-23T02:08:10.963Z,7.69
2022-10-23T02:10:52.990Z,7.77
2022-10-23T02:13:38.465Z,7.81
2022-10-23T02:16:08.020Z,7.75
2022-10-23T02:18:46.249Z,7.90
2022-10-23T02:21:17.150Z,7.83
2022-10-23T02:23:56.791Z,7.85
2022-10-23T02:26:43.701Z,7.76
2022-10-23T02:29:10.351Z,7.75
2022-10-23T02:31:37.145Z,7.81
2022-10-23T02:34:04.056Z,7.82
2022-10-23T02:36:30.805Z,7.78
2022-10-23T02:38:58.217Z,7.95
2022-10-23T02:41:46.750Z,7.81
2022-10-23T02:44:28.754Z,7.78
2022-10-23T02:47:28.086Z,7.68
2022-10-23T02:50:15.885Z,7.71
2022-10-23T02:53:20.592Z,7.61
2022-10-23T02:56:10.747Z,7.65
2022-10-23T02:58:46.801Z,7.63
2022-10-23T03:01:19.971Z,7.66
2022-10-23T03:03:57.992Z,7.76
2022-10-23T03:06:25.234Z,7.66
2022-10-23T03:08:59.318Z,7.68
2022-10-23T03:11:26.510Z,7.70
2022-10-23T03:13:53.175Z,7.65
2022-10-23T03:16:19.851Z,7.61
2022-10-23T03:18:46.492Z,7.42
2022-10-23T03:21:13.413Z,7.43
2022-10-23T03:23:40.106Z,7.35
2022-10-23T03:26:07.192Z,7.33
2022-10-23T03:28:35.470Z,7.22
2022-10-23T03:31:02.850Z,7.28
2022-10-23T03:33:30.861Z,7.29
2022-10-23T03:35:57.531Z,7.34
2022-10-23T03:38:24.268Z,7.38
2022-10-23T03:40:51.054Z,7.49
2022-10-23T03:43:17.748Z,7.32
2022-10-23T03:45:44.417Z,7.27
2022-10-23T03:48:11.068Z,7.47
2022-10-23T03:50:37.820Z,7.51
2022-10-23T03:53:04.488Z,7.34
2022-10-23T03:55:31.551Z,7.41
2022-10-23T03:57:58.390Z,7.34
2022-10-23T04:00:25.285Z,7.23
2022-10-23T04:02:51.949Z,7.17
2022-10-23T04:05:19.131Z,7.15
2022-10-23T04:07:45.821Z,7.22
2022-10-23T04:10:12.439Z,7.23
2022-10-23T04:12:39.233Z,7.17
2022-10-23T04:15:06.458Z,7.07
2022-10-23T04:17:33.242Z,7.10
2022-10-23T04:19:59.917Z,7.11
2022-10-23T04:22:28.423Z,7.23
2022-10-23T04:24:56.276Z,7.34
2022-10-23T04:27:25.802Z,7.17
2022-10-23T04:29:54.385Z,7.22
2022-10-23T04:32:23.514Z,7.09
2022-10-23T04:34:50.642Z,7.07
2022-10-23T04:37:17.593Z,7.08
2022-10-23T04:39:44.248Z,7.11
2022-10-23T04:42:10.874Z,7.04
2022-10-23T04:44:37.502Z,7.13
2022-10-23T04:47:04.151Z,7.16
2022-10-23T04:49:30.947Z,7.15
2022-10-23T04:51:57.628Z,7.14
2022-10-23T04:54:24.266Z,7.26
2022-10-23T04:56:50.900Z,7.20
2022-10-23T04:59:17.623Z,7.18
2022-10-23T05:01:44.312Z,7.17
2022-10-23T05:04:10.982Z,7.16
2022-10-23T05:06:37.679Z,7.18
2022-10-23T05:09:04.367Z,7.14
2022-10-23T05:11:31.063Z,7.06
2022-10-23T05:13:57.959Z,7.14
2022-10-23T05:17:00.161Z,7.23
2022-10-23T05:19:38.836Z,7.44
2022-10-23T05:22:06.436Z,7.61
2022-10-23T05:24:33.171Z,7.52
2022-10-23T05:26:59.862Z,7.45
2022-10-23T05:29:26.542Z,7.46
2022-10-23T05:31:57.396Z,7.50
2022-10-23T05:34:26.958Z,7.63
2022-10-23T05:36:54.295Z,7.66
2022-10-23T05:39:21.193Z,7.79
2022-10-23T05:41:47.998Z,8.00
2022-10-23T05:44:14.651Z,8.13
2022-10-23T05:46:44.551Z,8.21
2022-10-23T05:49:11.291Z,8.31
2022-10-23T05:51:40.177Z,8.48
2022-10-23T05:54:10.636Z,8.51
2022-10-23T05:56:39.173Z,8.60
2022-10-23T05:59:07.758Z,8.69
2022-10-23T06:01:34.847Z,8.84
2022-10-23T06:04:02.044Z,9.38
2022-10-23T06:06:28.780Z,10.74
2022-10-23T06:08:55.608Z,12.10
2022-10-23T06:11:22.822Z,13.40
2022-10-23T06:13:49.627Z,14.49
2022-10-23T06:16:18.846Z,14.61
2022-10-23T06:18:46.326Z,16.27
2022-10-23T06:21:14.406Z,16.58
2022-10-23T06:23:42.442Z,17.57
2022-10-23T06:26:11.072Z,17.99
2022-10-23T06:28:38.337Z,19.11
2022-10-23T06:31:09.879Z,19.76
2022-10-23T06:33:36.765Z,20.86
2022-10-23T06:36:05.484Z,21.46
2022-10-23T06:38:37.373Z,22.18
2022-10-23T06:41:04.827Z,20.17
2022-10-23T06:43:31.470Z,20.33
2022-10-23T06:46:01.783Z,21.39
2022-10-23T06:48:28.458Z,22.07
2022-10-23T06:50:55.929Z,21.55
2022-10-23T06:53:24.891Z,22.47
2022-10-23T06:55:54.595Z,23.76
2022-10-23T06:58:22.449Z,24.96
2022-10-23T07:00:49.192Z,22.44
2022-10-23T07:03:15.889Z,24.46
2022-10-23T07:05:44.893Z,25.64
2022-10-23T07:08:11.734Z,24.69
2022-10-23T07:10:38.450Z,26.18
2022-10-23T07:13:05.103Z,24.10
2022-10-23T07:15:31.793Z,24.69
2022-10-23T07:17:58.434Z,26.60
2022-10-23T07:20:25.122Z,26.23
2022-10-23T07:22:56.020Z,26.57
2022-10-23T07:25:23.911Z,28.08
2022-10-23T07:27:50.782Z,29.45
2022-10-23T07:30:17.817Z,29.24
2022-10-23T07:32:45.203Z,29.99
2022-10-23T07:37:45.032Z,29.24
2022-10-23T07:40:12.323Z,28.93
2022-10-23T07:42:39.089Z,28.85
2022-10-23T07:45:07.570Z,30.00
2022-10-23T07:47:34.353Z,29.95
2022-10-23T07:50:01.154Z,29.49
2022-10-23T07:52:31.965Z,30.69
2022-10-23T07:55:02.285Z,31.10
2022-10-23T07:57:28.981Z,30.53
2022-10-23T07:59:55.661Z,29.83
2022-10-23T08:02:22.399Z,30.55
2022-10-23T08:04:49.831Z,31.19
2022-10-23T08:07:16.430Z,30.50
2022-10-23T08:09:43.311Z,31.88
2022-10-23T08:12:10.445Z,32.59
2022-10-23T08:14:37.126Z,32.50
2022-10-23T08:17:05.360Z,30.70
2022-10-23T08:19:32.466Z,29.88
2022-10-23T08:21:59.079Z,29.58
2022-10-23T08:24:25.737Z,30.23
2022-10-23T08:26:52.856Z,29.42
2022-10-23T08:29:19.559Z,29.13
2022-10-23T08:31:46.320Z,29.25
2022-10-23T08:34:13.693Z,28.51
2022-10-23T08:36:40.487Z,29.32
2022-10-23T08:39:07.531Z,28.98
2022-10-23T08:41:40.694Z,27.60
2022-10-23T08:44:15.654Z,29.03
2022-10-23T08:46:47.487Z,28.67
2022-10-23T08:49:32.543Z,29.22
2022-10-23T08:52:01.006Z,29.23
2022-10-23T08:54:49.745Z,28.79
2022-10-23T08:57:17.873Z,28.80
2022-10-23T08:59:48.835Z,30.28
2022-10-23T09:02:47.009Z,27.22
2022-10-23T09:05:50.995Z,28.69
2022-10-23T09:08:27.274Z,28.05
2022-10-23T09:11:15.677Z,27.74
2022-10-23T09:14:08.841Z,28.20
2022-10-23T09:17:07.851Z,28.47
2022-10-23T09:19:34.785Z,26.74
2022-10-23T09:22:01.713Z,26.09
2022-10-23T09:24:31.792Z,26.48
2022-10-23T09:27:00.632Z,26.61
2022-10-23T09:29:32.854Z,26.89
2022-10-23T09:32:01.949Z,27.35
2022-10-23T09:34:30.886Z,28.29
2022-10-23T09:37:21.413Z,28.25
2022-10-23T09:39:48.912Z,27.29
2022-10-23T09:42:26.233Z,25.67
2022-10-23T09:44:54.768Z,26.98
2022-10-23T09:47:24.897Z,26.88
2022-10-23T09:49:54.241Z,27.67
2022-10-23T09:52:39.469Z,26.88
2022-10-23T09:55:35.399Z,28.80
2022-10-23T09:58:02.029Z,27.74
2022-10-23T10:00:28.810Z,27.49
2022-10-23T10:02:55.429Z,27.16
2022-10-23T10:05:42.526Z,26.97
2022-10-23T10:08:09.143Z,27.19
2022-10-23T10:10:45.640Z,27.78
2022-10-23T10:13:32.446Z,28.16
2022-10-23T10:16:05.386Z,28.84
2022-10-23T10:18:50.827Z,28.39
2022-10-23T10:21:48.281Z,28.72
2022-10-23T10:24:25.393Z,28.28
2022-10-23T10:27:19.860Z,29.05
2022-10-23T10:30:10.493Z,29.59
2022-10-23T10:33:10.892Z,29.17
2022-10-23T10:35:50.728Z,30.08
2022-10-23T10:38:38.290Z,29.60
2022-10-23T10:41:26.196Z,28.83
2022-10-23T10:44:10.915Z,28.88
2022-10-23T10:46:58.828Z,28.98
2022-10-23T10:49:34.470Z,29.74
2022-10-23T10:52:22.812Z,29.95
2022-10-23T10:55:19.472Z,28.59
2022-10-23T10:57:54.944Z,29.11
2022-10-23T11:00:24.202Z,30.07
2022-10-23T11:02:57.734Z,27.80
2022-10-23T11:05:35.306Z,28.83
2022-10-23T11:08:05.886Z,28.56
2022-10-23T11:10:33.662Z,27.67
2022-10-23T11:13:00.607Z,28.81
2022-10-23T11:15:42.870Z,29.55
2022-10-23T11:18:26.545Z,28.70
2022-10-23T11:21:12.026Z,28.20
2022-10-23T11:27:39.432Z,28.36
2022-10-23T11:30:33.211Z,27.61
2022-10-23T11:33:24.727Z,28.80
2022-10-23T11:36:01.837Z,29.26
2022-10-23T11:38:32.155Z,28.98
2022-10-23T11:41:03.869Z,28.46
2022-10-23T11:43:46.368Z,28.47
2022-10-23T11:46:31.029Z,27.97
2022-10-23T11:48:58.359Z,27.73
2022-10-23T11:51:36.953Z,27.99
2022-10-23T11:54:16.182Z,28.19
2022-10-23T11:57:13.895Z,28.80
2022-10-23T11:59:49.856Z,28.20
2022-10-23T12:02:19.355Z,27.05
2022-10-23T12:04:49.327Z,27.98
2022-10-23T12:07:30.072Z,27.59
2022-10-23T12:10:17.591Z,28.07
2022-10-23T12:12:59.835Z,28.68
2022-10-23T12:15:27.742Z,29.00
2022-10-23T12:18:06.975Z,29.06
2022-10-23T12:20:55.163Z,28.41
2022-10-23T12:23:48.223Z,27.26
2022-10-23T12:26:42.538Z,27.22
2022-10-23T12:29:30.656Z,26.60
2022-10-23T12:32:38.823Z,26.58
2022-10-23T12:35:28.816Z,26.50
2022-10-23T12:38:17.938Z,25.63
2022-10-23T12:40:46.350Z,24.62
2022-10-23T12:43:29.481Z,24.98
2022-10-23T12:46:00.144Z,25.20
2022-10-23T12:48:27.040Z,25.45
2022-10-23T12:50:56.328Z,25.33
2022-10-23T12:53:24.302Z,25.41
2022-10-23T12:56:03.267Z,24.92
2022-10-23T12:58:32.976Z,24.79
2022-10-23T13:01:04.315Z,24.04
2022-10-23T13:03:33.270Z,24.11
2022-10-23T13:06:04.618Z,24.38
2022-10-23T13:08:42.278Z,24.83
2022-10-23T13:11:15.587Z,24.92
2022-10-23T13:13:42.493Z,24.80
2022-10-23T13:16:23.752Z,24.75
2022-10-23T13:18:51.007Z,24.59
2022-10-23T13:21:25.138Z,24.66
2022-10-23T13:23:53.987Z,24.62
2022-10-23T13:26:30.490Z,24.39
2022-10-23T13:28:57.754Z,24.30
2022-10-23T13:31:26.229Z,24.50
2022-10-23T13:33:59.160Z,24.32
2022-10-23T13:36:27.992Z,24.51
2022-10-23T13:39:10.030Z,24.60
2022-10-23T13:41:46.894Z,24.60
2022-10-23T13:44:16.991Z,24.63
2022-10-23T13:46:44.446Z,24.63
2022-10-23T13:49:11.134Z,24.40
2022-10-23T13:51:44.989Z,24.39
2022-10-23T13:56:54.446Z,24.20
2022-10-23T13:59:21.857Z,24.15
2022-10-23T14:01:50.307Z,23.99
2022-10-23T14:04:18.599Z,23.39
2022-10-23T14:06:45.338Z,23.38
2022-10-23T14:09:14.660Z,23.31
2022-10-23T14:11:41.911Z,23.05
2022-10-23T14:14:09.094Z,23.07
2022-10-23T14:16:35.849Z,23.00
2022-10-23T14:19:02.683Z,23.09
2022-10-23T14:21:29.330Z,22.60
2022-10-23T14:23:56.109Z,22.79
2022-10-23T14:26:25.214Z,22.76
2022-10-23T14:28:53.891Z,22.81
2022-10-23T14:31:20.950Z,22.59
2022-10-23T14:33:52.340Z,22.30
2022-10-23T14:38:55.760Z,22.05
2022-10-23T14:41:22.928Z,21.52
2022-10-23T14:43:49.582Z,21.04
2022-10-23T14:46:19.024Z,20.80
2022-10-23T14:48:47.181Z,20.87
2022-10-23T14:51:18.176Z,20.97
2022-10-23T14:53:45.173Z,20.76
2022-10-23T14:56:11.846Z,20.64
2022-10-23T14:58:38.518Z,20.59
2022-10-23T15:01:05.597Z,20.38
2022-10-23T15:03:32.298Z,20.13
2022-10-23T15:05:59.129Z,19.89
2022-10-23T15:08:26.035Z,19.87
2022-10-23T15:11:07.751Z,19.57
2022-10-23T15:13:37.117Z,19.44
2022-10-23T15:16:09.519Z,19.19
2022-10-23T15:21:09.919Z,19.03
2022-10-23T15:23:39.519Z,18.79
2022-10-23T15:26:09.791Z,18.66
2022-10-23T15:28:36.454Z,18.45
2022-10-23T15:31:03.755Z,18.35
2022-10-23T15:33:30.552Z,18.10
2022-10-23T15:35:57.279Z,18.03
2022-10-23T15:38:24.666Z,17.74
2022-10-23T15:40:58.591Z,17.57
2022-10-23T15:43:25.330Z,17.34
2022-10-23T15:45:51.959Z,17.20
2022-10-23T15:48:19.416Z,17.03
2022-10-23T15:50:46.054Z,16.84
2022-10-23T15:53:12.923Z,16.66
2022-10-23T15:55:39.593Z,16.42
2022-10-23T15:58:06.428Z,16.32
2022-10-23T16:00:36.109Z,16.15
2022-10-23T16:03:02.894Z,16.15
2022-10-23T16:05:29.608Z,15.71
2022-10-23T16:07:56.331Z,15.71
2022-10-23T16:10:23.559Z,15.84
2022-10-23T16:12:50.291Z,15.61
2022-10-23T16:15:17.159Z,15.59
2022-10-23T16:17:44.003Z,15.44
2022-10-23T16:20:11.530Z,14.98
2022-10-23T16:22:41.339Z,15.01
2022-10-23T16:25:10.812Z,14.82
2022-10-23T16:27:37.564Z,14.69
2022-10-23T16:30:06.394Z,14.79
2022-10-23T16:32:33.234Z,14.56
2022-10-23T16:34:59.892Z,14.53
2022-10-23T16:37:26.596Z,14.41
2022-10-23T16:39:53.249Z,14.31
2022-10-23T16:42:19.891Z,14.23
2022-10-23T16:44:46.744Z,14.32
2022-10-23T16:47:13.427Z,14.38
2022-10-23T16:49:40.129Z,14.25
2022-10-23T16:52:06.795Z,14.20
2022-10-23T16:54:33.602Z,13.91
2022-10-23T16:57:00.274Z,13.70
2022-10-23T16:59:26.963Z,13.75
2022-10-23T17:01:54.231Z,13.60
2022-10-23T17:04:21.032Z,13.41
2022-10-23T17:06:47.911Z,13.56
2022-10-23T17:09:14.791Z,13.41
2022-10-23T17:11:44.197Z,13.36
2022-10-23T17:14:17.599Z,13.17
2022-10-23T17:16:50.302Z,12.97
2022-10-23T17:19:47.237Z,13.05
2022-10-23T17:22:10.694Z,12.93
2022-10-23T17:24:39.313Z,12.84
2022-10-23T17:27:06.594Z,12.82
2022-10-23T17:29:33.315Z,13.02
2022-10-23T17:32:00.045Z,12.97
2022-10-23T17:34:26.865Z,12.87
2022-10-23T17:36:55.127Z,12.66
2022-10-23T17:39:25.272Z,12.83
2022-10-23T17:41:52.771Z,12.86
2022-10-23T17:44:19.555Z,12.60
2022-10-23T17:46:46.624Z,12.72
2022-10-23T17:49:13.441Z,12.79
2022-10-23T17:51:40.227Z,12.05
2022-10-23T17:54:10.723Z,12.44
2022-10-23T17:56:38.426Z,12.19
2022-10-23T17:59:11.719Z,12.28
2022-10-23T18:01:38.997Z,12.23
2022-10-23T18:04:07.532Z,12.33
2022-10-23T18:06:40.344Z,12.41
2022-10-23T18:09:07.643Z,12.30
2022-10-23T18:11:37.087Z,12.09
2022-10-23T18:14:05.535Z,12.12
2022-10-23T18:16:34.084Z,12.17
2022-10-23T18:19:01.631Z,12.21
2022-10-23T18:21:29.516Z,11.93
2022-10-23T18:23:58.225Z,11.71
2022-10-23T18:26:27.400Z,11.45
2022-10-23T18:28:57.408Z,11.66
2022-10-23T18:31:27.097Z,11.53
2022-10-23T18:33:59.706Z,11.52
2022-10-23T18:36:28.698Z,11.46
2022-10-23T18:41:23.745Z,11.55
2022-10-23T18:43:54.664Z,11.29
2022-10-23T18:46:22.431Z,11.47
2022-10-23T18:48:50.918Z,11.34
2022-10-23T18:51:26.489Z,11.31
2022-10-23T18:53:53.970Z,10.75
2022-10-23T18:56:23.591Z,10.64
2022-10-23T18:58:54.088Z,10.59
2022-10-23T19:01:22.623Z,10.90
2022-10-23T19:03:50.609Z,10.95
2022-10-23T19:06:17.871Z,10.90
2022-10-23T19:08:45.676Z,10.99
2022-10-23T19:11:14.600Z,10.92
2022-10-23T19:13:42.038Z,10.54
2022-10-23T19:16:29.134Z,10.31
2022-10-23T19:19:00.546Z,10.59
2022-10-23T19:21:31.719Z,10.59
2022-10-23T19:24:05.072Z,10.65
2022-10-23T19:26:34.366Z,10.66
2022-10-23T19:29:01.749Z,10.83
2022-10-23T19:31:28.664Z,10.62
2022-10-23T19:33:56.021Z,10.78
2022-10-23T19:36:23.695Z,10.72
2022-10-23T19:38:50.993Z,10.18
2022-10-23T19:41:18.899Z,9.96
2022-10-23T19:43:45.744Z,10.16
2022-10-23T19:46:12.616Z,10.09
2022-10-23T19:48:44.569Z,9.88
2022-10-23T19:51:13.027Z,10.00
2022-10-23T19:53:41.389Z,10.15
2022-10-23T19:56:10.889Z,10.32
2022-10-23T19:58:38.680Z,9.94
2022-10-23T20:01:14.368Z,9.86
2022-10-23T20:03:42.336Z,10.11
2022-10-23T20:06:11.273Z,10.14
2022-10-23T20:08:38.329Z,10.19
2022-10-23T20:11:05.414Z,9.83
2022-10-23T20:13:32.228Z,9.80
2022-10-23T20:15:59.175Z,9.76
2022-10-23T20:18:26.153Z,9.41
2022-10-23T20:20:53.735Z,9.77
2022-10-23T20:23:20.529Z,9.85
2022-10-23T20:25:47.276Z,9.52
2022-10-23T20:28:15.219Z,9.25
2022-10-23T20:30:42.696Z,9.10
2022-10-23T20:33:09.484Z,9.22
2022-10-23T20:35:43.246Z,9.43
2022-10-23T20:38:10.075Z,9.47
2022-10-23T20:40:36.791Z,9.43
2022-10-23T20:43:03.875Z,9.49
2022-10-23T20:45:30.581Z,9.56
2022-10-23T20:47:57.524Z,9.38
2022-10-23T20:50:24.227Z,9.00
2022-10-23T20:52:51.421Z,9.14
2022-10-23T20:55:19.101Z,8.81
2022-10-23T20:57:46.576Z,8.79
2022-10-23T21:00:13.777Z,8.96
2022-10-23T21:02:40.496Z,9.15
2022-10-23T21:05:07.862Z,9.17
2022-10-23T21:07:34.611Z,9.27
2022-10-23T21:10:03.588Z,9.32
2022-10-23T21:12:30.331Z,9.20
2022-10-23T21:14:56.957Z,8.73
2022-10-23T21:17:23.674Z,8.61
2022-10-23T21:19:50.321Z,8.63
2022-10-23T21:22:17.191Z,8.69
2022-10-23T21:24:43.810Z,8.86
2022-10-23T21:27:10.532Z,8.93
2022-10-23T21:29:37.147Z,8.97
2022-10-23T21:32:04.025Z,8.98
2022-10-23T21:34:30.905Z,9.05
2022-10-23T21:37:12.288Z,9.04
2022-10-23T21:39:39.659Z,9.05
2022-10-23T21:42:06.675Z,9.01
2022-10-23T21:44:33.484Z,8.47
2022-10-23T21:47:00.114Z,8.05
2022-10-23T21:49:26.956Z,8.25
2022-10-23T21:51:55.074Z,8.44
2022-10-23T21:54:22.014Z,8.42
2022-10-23T21:56:50.889Z,8.63
2022-10-23T21:59:20.803Z,8.61
2022-10-23T22:01:48.848Z,8.81
2022-10-23T22:04:20.851Z,8.60
2022-10-23T22:06:49.605Z,8.46
2022-10-23T22:09:19.926Z,8.45
2022-10-23T22:11:48.247Z,8.47
2022-10-23T22:14:14.997Z,8.47
2022-10-23T22:16:42.226Z,8.21
2022-10-23T22:19:11.770Z,8.19
2022-10-23T22:21:40.091Z,8.17
2022-10-23T22:24:07.194Z,8.26
2022-10-23T22:26:39.791Z,8.34
2022-10-23T22:29:09.656Z,8.32
2022-10-23T22:31:38.117Z,8.25
2022-10-23T22:34:18.691Z,8.38
2022-10-23T22:36:55.190Z,8.29
2022-10-23T22:39:22.915Z,7.73
2022-10-23T22:41:50.485Z,7.69
2022-10-23T22:44:17.302Z,7.56
2022-10-23T22:46:44.630Z,7.41
2022-10-23T22:49:11.535Z,7.68
2022-10-23T22:51:39.262Z,7.85
2022-10-23T22:54:06.272Z,7.98
2022-10-23T22:56:33.254Z,7.98
2022-10-23T22:58:59.926Z,7.88
2022-10-23T23:01:36.464Z,7.77
2022-10-23T23:04:13.888Z,7.42
2022-10-23T23:06:51.078Z,7.40
2022-10-23T23:09:18.791Z,7.63
2022-10-23T23:11:51.506Z,7.65
2022-10-23T23:14:22.957Z,7.73
2022-10-23T23:16:51.550Z,7.78
2022-10-23T23:19:18.246Z,7.91
2022-10-23T23:21:44.922Z,7.87
2022-10-23T23:24:12.287Z,7.90
2022-10-23T23:26:39.234Z,7.71
2022-10-23T23:29:05.955Z,7.40
2022-10-23T23:31:32.676Z,7.38
2022-10-23T23:33:59.561Z,7.33
2022-10-23T23:36:27.612Z,7.53
2022-10-23T23:38:56.830Z,7.67
2022-10-23T23:41:24.470Z,7.54
2022-10-23T23:43:54.169Z,7.24
2022-10-23T23:46:21.061Z,6.96
2022-10-23T23:48:49.469Z,7.22
2022-10-23T23:51:21.793Z,7.34
2022-10-23T23:53:51.414Z,7.29
2022-10-23T23:56:18.859Z,7.00
2022-10-23T23:58:45.563Z,7.30
